Time;durP1;ratioP1;P1;durP2;ratioP2;P2;SDS_P1;SDS_P2;PMS_P1;PMS_P2;Temp;Humidity;BMP_temperature;BMP_pressure;BME280_temperature;BME280_humidity;BME280_pressure;Samples;Min_cycle;Max_cycle;Signal;HPM_P1;HPM_P2
2021/12/29 00:00:26;;;;;;;47.40;23.20;;;;;;;-4.55;89.06;98755.48;102422;1311;59879;-65
2021/12/29 00:03:15;;;;;;;51.80;23.10;;;;;;;-4.55;88.93;98759.44;102936;1310;60940;-65
2021/12/29 00:06:02;;;;;;;49.90;23.30;;;;;;;-4.54;88.87;98752.82;102368;1315;73511;-66
2021/12/29 00:08:50;;;;;;;49.20;23.70;;;;;;;-4.54;88.76;98746.95;102502;1311;68477;-66
2021/12/29 00:11:39;;;;;;;44.20;20.70;;;;;;;-4.53;88.65;98740.70;102560;1310;71646;-65
2021/12/29 00:14:27;;;;;;;51.30;24.00;;;;;;;-4.53;88.55;98745.88;102560;1311;59777;-66
2021/12/29 00:17:14;;;;;;;49.60;20.00;;;;;;;-4.56;88.59;98738.02;102272;1311;60617;-65
2021/12/29 00:20:03;;;;;;;47.70;21.70;;;;;;;-4.57;88.82;98740.13;101741;1311;1002973;-66
2021/12/29 00:22:51;;;;;;;47.30;22.50;;;;;;;-4.58;88.63;98738.95;102450;1311;68116;-65
2021/12/29 00:25:39;;;;;;;42.40;18.70;;;;;;;-4.60;88.64;98737.48;102427;1310;71464;-66
2021/12/29 00:28:27;;;;;;;45.40;22.00;;;;;;;-4.61;88.70;98737.02;102545;1315;60078;-66
2021/12/29 00:31:14;;;;;;;46.20;21.40;;;;;;;-4.63;88.65;98733.40;102315;1310;59682;-66
2021/12/29 00:34:21;;;;;;;43.90;21.20;;;;;;;-4.62;88.60;98727.51;102743;1314;73380;-66
2021/12/29 00:37:28;;;;;;;51.20;22.70;;;;;;;-4.61;88.71;98729.89;102569;1314;68172;-66
2021/12/29 00:40:36;;;;;;;43.00;20.50;;;;;;;-4.62;88.56;98728.02;102412;1316;70093;-66
2021/12/29 00:43:44;;;;;;;35.00;15.40;;;;;;;-4.63;88.61;98729.43;102784;1307;59799;-66
2021/12/29 00:46:54;;;;;;;42.60;18.70;;;;;;;-4.63;88.75;98729.10;102451;1317;60516;-66
2021/12/29 00:49:45;;;;;;;44.60;19.40;;;;;;;-4.64;88.62;98729.98;102053;1311;73530;-66
2021/12/29 00:52:33;;;;;;;44.80;20.40;;;;;;;-4.64;88.61;98731.73;102619;1313;67338;-66
2021/12/29 00:55:21;;;;;;;42.10;19.80;;;;;;;-4.62;88.57;98730.79;102459;1310;71043;-66
2021/12/29 00:58:08;;;;;;;39.60;19.20;;;;;;;-4.63;88.73;98736.70;101670;1316;1003555;-66
2021/12/29 01:00:58;;;;;;;34.90;15.80;;;;;;;-4.65;88.54;98741.30;102513;1311;60488;-65
2021/12/29 01:03:46;;;;;;;42.10;18.80;;;;;;;-4.68;88.78;98740.01;102297;1311;72463;-66
2021/12/29 01:06:34;;;;;;;44.80;22.00;;;;;;;-4.68;88.69;98738.12;102321;1317;66963;-67
2021/12/29 01:09:22;;;;;;;37.80;17.00;;;;;;;-4.68;88.66;98738.13;102480;1316;72974;-66
2021/12/29 01:12:12;;;;;;;41.00;19.40;;;;;;;-4.67;88.57;98737.89;101760;1317;1003893;-66
2021/12/29 01:15:01;;;;;;;50.20;22.70;;;;;;;-4.66;88.75;98733.37;102515;1317;60483;-67
2021/12/29 01:17:49;;;;;;;44.10;20.80;;;;;;;-4.69;88.71;98740.03;102195;1316;71915;-67
2021/12/29 01:20:37;;;;;;;47.40;20.70;;;;;;;-4.67;88.90;98731.14;102595;1316;67379;-66
2021/12/29 01:23:25;;;;;;;43.50;21.70;;;;;;;-4.64;88.78;98722.56;102483;1314;74404;-66
2021/12/29 01:26:12;;;;;;;44.50;20.10;;;;;;;-4.62;88.69;98724.75;102477;1317;59693;-66
2021/12/29 01:29:00;;;;;;;39.60;18.60;;;;;;;-4.62;88.46;98722.48;101785;1314;1003390;-66
2021/12/29 01:31:47;;;;;;;47.80;22.00;;;;;;;-4.65;88.48;98721.91;102463;1311;72662;-66
2021/12/29 01:34:35;;;;;;;46.50;19.30;;;;;;;-4.65;88.73;98723.81;102497;1311;68041;-65
2021/12/29 01:37:23;;;;;;;45.50;19.60;;;;;;;-4.68;88.48;98723.38;102894;1314;73351;-66
2021/12/29 01:40:15;;;;;;;45.20;21.60;;;;;;;-4.65;88.62;98719.85;102500;1311;60025;-66
2021/12/29 01:43:09;;;;;;;48.40;20.70;;;;;;;-4.66;88.54;98724.89;102582;1316;60197;-66
2021/12/29 01:45:56;;;;;;;50.90;21.80;;;;;;;-4.67;88.52;98722.16;101925;1316;1003877;-66
2021/12/29 01:48:44;;;;;;;53.00;22.20;;;;;;;-4.66;88.46;98722.66;102582;1316;67044;-66
2021/12/29 01:51:32;;;;;;;41.60;17.30;;;;;;;-4.64;88.59;98729.15;102446;1317;70239;-66
2021/12/29 01:54:26;;;;;;;45.20;19.80;;;;;;;-4.65;88.34;98737.64;102715;1317;59615;-65
2021/12/29 01:57:14;;;;;;;47.30;19.10;;;;;;;-4.67;88.48;98736.17;102968;1317;59790;-66
2021/12/29 02:00:08;;;;;;;47.30;22.40;;;;;;;-4.68;88.66;98737.59;102297;1311;74961;-66
2021/12/29 02:02:58;;;;;;;49.70;21.60;;;;;;;-4.69;88.51;98739.55;102427;1311;67015;-66
2021/12/29 02:05:48;;;;;;;47.90;23.00;;;;;;;-4.67;88.75;98745.02;102291;1316;72977;-66
2021/12/29 02:08:36;;;;;;;41.30;19.30;;;;;;;-4.68;88.48;98743.98;102607;1311;59786;-66
2021/12/29 02:11:29;;;;;;;44.30;17.90;;;;;;;-4.68;88.61;98738.13;102494;1311;59618;-66
2021/12/29 02:14:18;;;;;;;43.30;18.50;;;;;;;-4.69;88.66;98735.03;102244;1317;71523;-66
2021/12/29 02:17:05;;;;;;;46.40;20.80;;;;;;;-4.68;88.74;98736.36;102607;1317;68409;-66
2021/12/29 02:20:02;;;;;;;41.20;18.10;;;;;;;-4.68;88.86;98736.39;102510;1317;73684;-66
2021/12/29 02:23:01;;;;;;;46.10;20.30;;;;;;;-4.69;88.75;98738.35;102517;1317;59638;-66
2021/12/29 02:25:52;;;;;;;46.10;19.20;;;;;;;-4.70;88.85;98740.43;102591;1314;62124;-66
2021/12/29 02:28:42;;;;;;;36.70;16.80;;;;;;;-4.72;88.96;98746.06;102420;1314;71394;-66
2021/12/29 02:31:30;;;;;;;45.00;19.50;;;;;;;-4.71;89.18;98748.27;102361;1316;68364;-66
2021/12/29 02:34:17;;;;;;;44.00;18.90;;;;;;;-4.72;88.99;98749.36;102712;1310;71723;-66
2021/12/29 02:37:05;;;;;;;54.60;21.70;;;;;;;-4.72;89.25;98745.89;102395;1315;60035;-65
2021/12/29 02:39:53;;;;;;;47.40;19.40;;;;;;;-4.72;89.42;98739.80;102298;1317;59781;-66
2021/12/29 02:42:42;;;;;;;48.60;21.20;;;;;;;-4.69;89.33;98738.52;102523;1316;73760;-66
2021/12/29 02:45:33;;;;;;;51.70;23.60;;;;;;;-4.69;89.48;98743.02;102739;1316;68179;-66
2021/12/29 02:48:23;;;;;;;47.70;21.30;;;;;;;-4.71;89.78;98748.09;102705;1315;74965;-66
2021/12/29 02:51:11;;;;;;;51.30;21.80;;;;;;;-4.72;89.77;98742.43;102810;1316;60275;-66
2021/12/29 02:54:00;;;;;;;48.10;21.40;;;;;;;-4.71;90.00;98739.98;102642;1316;60963;-66
2021/12/29 02:56:49;;;;;;;49.00;21.70;;;;;;;-4.71;90.16;98738.73;102437;1315;72098;-65
2021/12/29 02:59:37;;;;;;;51.90;21.90;;;;;;;-4.69;89.92;98738.67;102674;1316;66775;-66
2021/12/29 03:02:24;;;;;;;41.70;17.40;;;;;;;-4.68;89.98;98739.67;102240;1315;72870;-66
2021/12/29 03:05:12;;;;;;;53.00;21.60;;;;;;;-4.68;90.09;98741.94;102442;1317;59806;-67
2021/12/29 03:07:59;;;;;;;54.40;21.90;;;;;;;-4.69;90.31;98740.24;101945;1317;1005014;-66
2021/12/29 03:10:52;;;;;;;52.80;21.40;;;;;;;-4.67;90.25;98739.27;102409;1311;71161;-66
2021/12/29 03:13:41;;;;;;;52.10;22.30;;;;;;;-4.67;90.15;98744.98;102371;1310;66726;-67
2021/12/29 03:16:29;;;;;;;47.80;19.10;;;;;;;-4.67;90.50;98745.34;102244;1314;71480;-66
2021/12/29 03:19:16;;;;;;;52.30;22.00;;;;;;;-4.68;90.44;98750.92;102418;1310;59754;-66
2021/12/29 03:22:04;;;;;;;50.80;22.70;;;;;;;-4.69;90.76;98750.97;102411;1316;61336;-66
2021/12/29 03:24:52;;;;;;;48.50;23.80;;;;;;;-4.68;90.94;98750.22;102486;1308;72131;-66
2021/12/29 03:27:42;;;;;;;52.40;22.40;;;;;;;-4.67;90.79;98746.72;101816;1316;1003716;-66
2021/12/29 03:30:35;;;;;;;50.10;22.10;;;;;;;-4.65;90.97;98750.45;102383;1310;75244;-66
2021/12/29 03:33:28;;;;;;;52.20;22.40;;;;;;;-4.64;90.70;98751.45;102513;1316;59709;-66
2021/12/29 03:36:18;;;;;;;50.10;22.00;;;;;;;-4.63;90.96;98752.99;102707;1313;59602;-66
2021/12/29 03:39:07;;;;;;;52.50;22.10;;;;;;;-4.62;91.02;98752.42;102476;1317;71863;-66
2021/12/29 03:41:54;;;;;;;51.00;21.10;;;;;;;-4.58;90.89;98756.46;102405;1316;66906;-66
2021/12/29 03:44:42;;;;;;;47.00;20.40;;;;;;;-4.55;90.90;98760.67;101797;1311;1003035;-66
2021/12/29 03:47:30;;;;;;;44.40;17.90;;;;;;;-4.53;90.88;98761.27;102442;1316;60144;-66
2021/12/29 03:50:18;;;;;;;49.90;22.50;;;;;;;-4.53;90.88;98758.15;102011;1314;1015982;-66
2021/12/29 03:53:07;;;;;;;52.10;21.80;;;;;;;-4.54;91.02;98758.04;102553;1316;73320;-66
2021/12/29 03:55:56;;;;;;;53.20;22.50;;;;;;;-4.53;91.32;98760.23;102516;1316;66898;-66
2021/12/29 03:58:44;;;;;;;47.90;20.40;;;;;;;-4.52;91.15;98755.89;102446;1314;71967;-66
2021/12/29 04:01:31;;;;;;;55.30;20.60;;;;;;;-4.53;91.45;98757.96;102605;1310;60113;-66
2021/12/29 04:04:19;;;;;;;54.30;22.10;;;;;;;-4.51;91.56;98749.97;102397;1310;59714;-66
2021/12/29 04:07:07;;;;;;;54.60;23.40;;;;;;;-4.50;91.47;98748.02;102442;1311;73737;-66
2021/12/29 04:09:54;;;;;;;51.90;23.40;;;;;;;-4.48;91.47;98748.80;102599;1310;68871;-66
2021/12/29 04:12:42;;;;;;;51.50;22.50;;;;;;;-4.46;91.50;98757.05;102524;1310;70759;-66
2021/12/29 04:15:31;;;;;;;54.00;22.00;;;;;;;-4.47;91.69;98751.34;102515;1311;59810;-66
2021/12/29 04:18:30;;;;;;;52.70;20.40;;;;;;;-4.46;91.69;98762.21;102459;1313;59666;-66
2021/12/29 04:21:21;;;;;;;48.80;22.80;;;;;;;-4.45;91.81;98765.98;102506;1317;73302;-65
2021/12/29 04:24:11;;;;;;;40.20;16.00;;;;;;;-4.42;91.62;98761.38;102579;1310;66901;-65
2021/12/29 04:26:59;;;;;;;51.80;19.80;;;;;;;-4.39;91.55;98757.84;102408;1310;73206;-65
2021/12/29 04:29:47;;;;;;;51.10;21.40;;;;;;;-4.39;91.88;98760.77;102635;1314;59665;-65
2021/12/29 04:32:34;;;;;;;52.20;22.80;;;;;;;-4.35;91.90;98759.06;102532;1310;59676;-66
2021/12/29 04:35:23;;;;;;;46.10;18.60;;;;;;;-4.32;91.46;98763.95;102533;1314;73477;-66
2021/12/29 04:38:11;;;;;;;46.20;21.30;;;;;;;-4.32;91.74;98765.15;102636;1317;68754;-65
2021/12/29 04:40:58;;;;;;;47.20;17.80;;;;;;;-4.30;91.43;98755.92;102609;1314;74671;-65
2021/12/29 04:43:47;;;;;;;51.00;22.00;;;;;;;-4.30;91.59;98754.02;102472;1314;59647;-66
2021/12/29 04:46:38;;;;;;;45.40;19.60;;;;;;;-4.30;91.74;98755.05;102662;1311;60322;-66
2021/12/29 04:49:39;;;;;;;48.90;20.30;;;;;;;-4.30;91.55;98756.45;102549;1311;73853;-66
2021/12/29 04:52:31;;;;;;;49.20;21.20;;;;;;;-4.27;91.84;98757.20;102826;1310;66971;-66
2021/12/29 04:55:19;;;;;;;51.20;21.50;;;;;;;-4.25;91.70;98759.21;102844;1313;73586;-66
2021/12/29 04:58:06;;;;;;;51.30;21.10;;;;;;;-4.25;91.87;98759.55;102800;1317;59716;-66
2021/12/29 05:00:55;;;;;;;43.90;16.70;;;;;;;-4.25;91.80;98761.29;102765;1310;59676;-66
2021/12/29 05:03:44;;;;;;;57.50;23.50;;;;;;;-4.25;91.94;98757.66;102172;1316;72348;-66
2021/12/29 05:09:38;;;;;;;44.30;19.20;;;;;;;-4.23;92.17;98749.23;102154;1313;1002975;-66
2021/12/29 05:12:26;;;;;;;54.20;21.90;;;;;;;-4.25;92.35;98750.39;102648;1311;59739;-66
2021/12/29 05:15:14;;;;;;;58.20;23.70;;;;;;;-4.26;92.41;98753.71;102664;1317;60936;-66
2021/12/29 05:18:02;;;;;;;47.10;19.60;;;;;;;-4.23;92.37;98754.98;102851;1313;73444;-66
2021/12/29 05:20:51;;;;;;;48.90;21.60;;;;;;;-4.20;92.36;98756.95;102313;1311;67147;-66
2021/12/29 05:23:39;;;;;;;55.30;24.40;;;;;;;-4.17;92.31;98754.03;101815;1311;1003559;-66
2021/12/29 05:26:26;;;;;;;51.90;21.20;;;;;;;-4.14;92.16;98755.14;101830;1314;1003441;-66
2021/12/29 05:29:14;;;;;;;54.60;23.10;;;;;;;-4.14;92.10;98761.20;101603;1314;1002974;-66
2021/12/29 05:32:03;;;;;;;49.40;21.80;;;;;;;-4.13;92.05;98759.95;102724;1313;73722;-66
2021/12/29 05:34:50;;;;;;;50.80;21.60;;;;;;;-4.10;92.20;98760.02;101624;1311;1003470;-66
2021/12/29 05:37:42;;;;;;;47.00;20.60;;;;;;;-4.11;92.37;98767.48;102528;1317;71646;-66
2021/12/29 05:40:31;;;;;;;47.80;21.20;;;;;;;-4.09;92.26;98761.90;102473;1310;59713;-66
2021/12/29 05:43:23;;;;;;;49.30;21.80;;;;;;;-4.09;92.59;98768.64;101923;1318;1003071;-66
2021/12/29 05:46:11;;;;;;;45.90;18.60;;;;;;;-4.09;92.32;98770.90;102070;1313;72334;-66
2021/12/29 05:48:59;;;;;;;53.30;23.40;;;;;;;-4.11;92.52;98770.10;101686;1310;1016316;-66
2021/12/29 05:51:48;;;;;;;43.40;20.00;;;;;;;-4.11;92.52;98775.67;102767;1310;73591;-66
2021/12/29 05:54:37;;;;;;;45.60;20.70;;;;;;;-4.13;92.55;98778.65;102829;1316;59786;-66
2021/12/29 05:57:24;;;;;;;46.20;20.10;;;;;;;-4.11;92.66;98772.52;102800;1316;60596;-66
2021/12/29 06:00:17;;;;;;;45.40;19.60;;;;;;;-4.11;92.75;98781.71;103040;1310;73414;-67
2021/12/29 06:03:07;;;;;;;45.00;19.40;;;;;;;-4.11;92.74;98775.65;102468;1314;70448;-66
2021/12/29 06:05:56;;;;;;;50.90;20.90;;;;;;;-4.10;92.80;98776.98;102360;1314;72920;-66
2021/12/29 06:08:44;;;;;;;43.10;17.30;;;;;;;-4.07;92.73;98772.92;102315;1311;59748;-66
2021/12/29 06:11:32;;;;;;;47.90;20.80;;;;;;;-4.07;92.70;98781.57;101708;1313;1003744;-66
2021/12/29 06:14:20;;;;;;;47.80;21.60;;;;;;;-4.07;92.90;98779.49;102823;1314;73591;-66
2021/12/29 06:17:08;;;;;;;52.30;22.50;;;;;;;-4.06;92.89;98785.67;102643;1310;66917;-66
2021/12/29 06:19:56;;;;;;;54.50;22.80;;;;;;;-4.04;92.74;98793.56;102778;1311;71616;-66
2021/12/29 06:22:44;;;;;;;46.80;19.80;;;;;;;-4.02;92.62;98799.20;102305;1311;59691;-66
2021/12/29 06:25:32;;;;;;;43.00;18.60;;;;;;;-4.00;92.57;98798.30;102628;1304;59689;-66
2021/12/29 06:28:20;;;;;;;51.90;22.40;;;;;;;-4.00;92.60;98802.80;102522;1312;72327;-67
2021/12/29 06:31:07;;;;;;;52.20;21.20;;;;;;;-4.00;92.67;98804.70;102478;1311;68221;-66
2021/12/29 06:33:55;;;;;;;48.70;21.20;;;;;;;-3.99;92.61;98804.81;102371;1313;71323;-67
2021/12/29 06:36:44;;;;;;;49.20;21.80;;;;;;;-3.98;92.54;98800.80;102206;1311;59814;-67
2021/12/29 06:39:44;;;;;;;39.90;15.00;;;;;;;-4.00;92.70;98803.28;102303;1317;60526;-67
2021/12/29 06:42:32;;;;;;;48.90;20.50;;;;;;;-3.99;92.74;98806.19;102416;1310;73589;-67
2021/12/29 06:45:20;;;;;;;53.30;22.10;;;;;;;-3.98;92.77;98809.98;102561;1311;68622;-68
2021/12/29 06:48:07;;;;;;;55.10;22.20;;;;;;;-3.96;92.62;98817.88;102899;1310;71380;-66
2021/12/29 06:50:54;;;;;;;49.40;22.90;;;;;;;-3.93;92.68;98818.98;102147;1313;59622;-66
2021/12/29 06:53:41;;;;;;;43.20;19.50;;;;;;;-3.91;92.68;98823.76;102614;1314;59641;-66
2021/12/29 06:56:29;;;;;;;48.90;20.20;;;;;;;-3.91;92.81;98815.97;101661;1311;1003435;-66
2021/12/29 06:59:17;;;;;;;55.70;24.50;;;;;;;-3.91;92.87;98818.91;101941;1311;1003638;-66
2021/12/29 07:02:06;;;;;;;57.40;22.40;;;;;;;-3.92;92.67;98822.59;102641;1314;71794;-67
2021/12/29 07:04:54;;;;;;;55.10;22.60;;;;;;;-3.92;92.83;98827.42;102575;1313;59781;-68
2021/12/29 07:07:42;;;;;;;52.20;21.20;;;;;;;-3.91;92.83;98824.77;101856;1311;1002659;-68
2021/12/29 07:10:29;;;;;;;47.50;19.00;;;;;;;-3.88;92.86;98828.84;102663;1314;72178;-68
2021/12/29 07:13:17;;;;;;;59.50;23.60;;;;;;;-3.88;92.75;98833.16;102617;1315;68421;-69
2021/12/29 07:16:05;;;;;;;56.30;22.80;;;;;;;-3.90;93.11;98838.98;102932;1311;73122;-66
2021/12/29 07:18:54;;;;;;;55.30;23.60;;;;;;;-3.90;93.24;98843.66;102562;1310;59705;-66
2021/12/29 07:21:43;;;;;;;49.80;22.20;;;;;;;-3.87;93.22;98846.67;102591;1314;60487;-66
2021/12/29 07:27:58;;;;;;;58.00;23.30;;;;;;;-3.85;93.22;98850.21;102634;1314;67969;-66
2021/12/29 07:30:46;;;;;;;63.80;23.60;;;;;;;-3.85;93.17;98849.15;102484;1311;73413;-66
2021/12/29 07:33:34;;;;;;;51.40;20.50;;;;;;;-3.84;93.24;98850.34;102518;1314;59804;-66
2021/12/29 07:36:22;;;;;;;45.40;16.90;;;;;;;-3.83;93.31;98853.08;102681;1310;59861;-66
2021/12/29 07:39:11;;;;;;;56.80;22.60;;;;;;;-3.83;93.42;98854.29;102547;1310;73180;-66
2021/12/29 07:41:59;;;;;;;58.30;23.80;;;;;;;-3.83;93.50;98853.96;102400;1310;67527;-66
2021/12/29 07:44:51;;;;;;;47.40;17.30;;;;;;;-3.81;93.36;98858.04;102224;1314;71767;-66
2021/12/29 07:47:47;;;;;;;59.60;23.40;;;;;;;-3.81;93.52;98863.05;102343;1310;59772;-66
2021/12/29 07:50:36;;;;;;;59.30;22.40;;;;;;;-3.79;93.45;98865.40;102669;1311;60430;-66
2021/12/29 07:53:23;;;;;;;56.90;23.50;;;;;;;-3.78;93.42;98861.03;102584;1313;74062;-66
2021/12/29 07:56:12;;;;;;;65.40;24.80;;;;;;;-3.78;93.39;98861.03;102693;1311;66711;-66
2021/12/29 07:59:00;;;;;;;56.00;20.30;;;;;;;-3.74;93.63;98860.22;102558;1310;73133;-66
2021/12/29 08:01:49;;;;;;;51.30;21.30;;;;;;;-3.71;93.61;98858.38;102650;1311;59748;-66
2021/12/29 08:04:39;;;;;;;61.90;23.50;;;;;;;-3.68;93.51;98855.30;102229;1311;60681;-66
2021/12/29 08:07:27;;;;;;;61.30;24.20;;;;;;;-3.64;93.37;98858.41;102596;1314;73613;-66
2021/12/29 08:10:15;;;;;;;62.30;24.10;;;;;;;-3.62;93.23;98860.96;102790;1310;67072;-66
2021/12/29 08:13:05;;;;;;;60.20;25.20;;;;;;;-3.61;93.34;98869.05;102321;1311;74560;-66
2021/12/29 08:15:53;;;;;;;65.70;25.00;;;;;;;-3.62;93.23;98874.30;102278;1311;59789;-66
2021/12/29 08:18:41;;;;;;;59.30;23.60;;;;;;;-3.60;93.58;98872.66;102480;1314;59659;-66
2021/12/29 08:21:28;;;;;;;52.70;19.40;;;;;;;-3.59;93.40;98867.61;102227;1313;74779;-66
2021/12/29 08:24:15;;;;;;;56.30;23.20;;;;;;;-3.60;93.39;98866.41;102168;1313;68239;-65
2021/12/29 08:27:04;;;;;;;58.60;25.50;;;;;;;-3.60;93.55;98865.73;102161;1310;73062;-65
2021/12/29 08:29:51;;;;;;;60.10;24.30;;;;;;;-3.59;93.80;98869.16;102579;1313;59686;-66
2021/12/29 08:32:42;;;;;;;59.20;22.70;;;;;;;-3.56;93.65;98866.78;102428;1310;59591;-66
2021/12/29 08:35:30;;;;;;;59.70;21.90;;;;;;;-3.52;93.62;98867.87;101537;1311;1003392;-66
2021/12/29 08:38:17;;;;;;;43.90;17.30;;;;;;;-3.49;93.68;98871.71;102443;1314;68215;-66
2021/12/29 08:41:05;;;;;;;55.40;19.60;;;;;;;-3.49;93.69;98875.55;102437;1311;71676;-65
2021/12/29 08:43:52;;;;;;;59.50;21.50;;;;;;;-3.50;93.93;98875.57;102504;1311;59646;-66
2021/12/29 08:46:40;;;;;;;58.40;21.90;;;;;;;-3.48;94.05;98884.87;102439;1310;60778;-66
2021/12/29 08:49:27;;;;;;;56.50;20.90;;;;;;;-3.45;94.01;98896.02;102563;1314;73834;-66
2021/12/29 08:52:15;;;;;;;46.00;17.90;;;;;;;-3.46;93.84;98899.52;102677;1311;68079;-66
2021/12/29 08:55:05;;;;;;;60.80;23.40;;;;;;;-3.48;94.05;98903.60;102569;1311;71492;-66
2021/12/29 08:57:52;;;;;;;64.10;23.70;;;;;;;-3.52;94.44;98902.68;102192;1311;1003042;-66
2021/12/29 09:00:40;;;;;;;65.10;24.80;;;;;;;-3.51;94.33;98905.44;103112;1310;60971;-66
2021/12/29 09:03:28;;;;;;;53.00;20.70;;;;;;;-3.52;94.30;98903.38;102797;1311;73419;-66
2021/12/29 09:06:19;;;;;;;56.70;22.10;;;;;;;-3.49;94.45;98903.64;102698;1311;68515;-66
2021/12/29 09:09:06;;;;;;;59.50;23.30;;;;;;;-3.47;94.37;98910.84;102781;1314;72952;-67
2021/12/29 09:11:54;;;;;;;66.30;25.60;;;;;;;-3.46;94.36;98908.56;102316;1310;60181;-66
2021/12/29 09:14:44;;;;;;;61.40;25.50;;;;;;;-3.42;94.40;98911.86;102558;1310;60538;-66
2021/12/29 09:17:32;;;;;;;56.90;22.50;;;;;;;-3.39;94.27;98912.80;102745;1310;72510;-66
2021/12/29 09:20:31;;;;;;;58.10;23.60;;;;;;;-3.38;94.39;98909.44;102388;1311;68128;-66
2021/12/29 09:23:18;;;;;;;63.50;23.20;;;;;;;-3.35;94.45;98899.46;102427;1311;70594;-66
2021/12/29 09:26:07;;;;;;;66.30;23.80;;;;;;;-3.32;94.14;98902.46;102736;1310;59783;-66
2021/12/29 09:28:54;;;;;;;71.00;25.60;;;;;;;-3.31;93.98;98902.77;102809;1311;60928;-66
2021/12/29 09:31:42;;;;;;;58.80;23.00;;;;;;;-3.30;94.19;98906.70;102330;1311;72405;-66
2021/12/29 09:34:34;;;;;;;66.70;25.30;;;;;;;-3.26;94.20;98905.86;102598;1314;68212;-67
2021/12/29 09:37:20;;;;;;;61.80;24.70;;;;;;;-3.24;94.24;98906.48;102766;1311;71871;-66
2021/12/29 09:40:10;;;;;;;39.20;15.70;;;;;;;-3.22;94.10;98904.15;102698;1311;59769;-66
2021/12/29 09:42:58;;;;;;;66.00;24.80;;;;;;;-3.26;94.15;98901.52;102372;1316;59628;-66
2021/12/29 09:45:48;;;;;;;69.10;25.50;;;;;;;-3.25;94.44;98904.41;102534;1314;73533;-66
2021/12/29 09:48:36;;;;;;;63.90;25.60;;;;;;;-3.20;94.24;98902.00;101736;1312;1003693;-66
2021/12/29 09:51:24;;;;;;;56.90;21.00;;;;;;;-3.14;94.58;98899.48;102917;1310;73078;-68
2021/12/29 09:54:12;;;;;;;63.80;25.20;;;;;;;-3.07;94.29;98904.73;101730;1310;1003506;-66
2021/12/29 09:57:00;;;;;;;62.00;23.40;;;;;;;-3.04;93.88;98907.61;102702;1302;59825;-66
2021/12/29 09:59:48;;;;;;;69.30;27.30;;;;;;;-3.06;93.88;98905.59;103285;1310;73393;-66
2021/12/29 10:02:36;;;;;;;68.00;27.20;;;;;;;-3.08;93.90;98910.53;102616;1314;66944;-66
2021/12/29 10:05:27;;;;;;;55.10;21.90;;;;;;;-3.08;94.16;98911.56;102203;1310;73831;-66
2021/12/29 10:08:24;;;;;;;58.80;22.80;;;;;;;-3.08;94.03;98915.91;102670;1313;59712;-66
2021/12/29 10:11:19;;;;;;;65.80;23.70;;;;;;;-3.09;94.53;98914.05;102246;1310;60397;-66
2021/12/29 10:14:11;;;;;;;66.20;24.40;;;;;;;-3.10;94.31;98914.40;102175;1314;73728;-65
2021/12/29 10:16:58;;;;;;;70.30;28.10;;;;;;;-3.07;94.36;98915.68;102339;1310;66851;-67
2021/12/29 10:19:46;;;;;;;60.00;23.00;;;;;;;-3.04;94.64;98920.98;101819;1310;1003059;-66
2021/12/29 10:22:34;;;;;;;50.40;20.00;;;;;;;-3.01;94.49;98925.36;102063;1314;1003001;-65
2021/12/29 10:25:24;;;;;;;40.40;15.50;;;;;;;-3.01;94.11;98923.78;102516;1311;59670;-66
2021/12/29 10:28:24;;;;;;;65.40;23.90;;;;;;;-3.03;94.37;98922.29;102515;1311;73293;-66
2021/12/29 10:31:21;;;;;;;66.30;26.20;;;;;;;-3.02;94.75;98919.27;102682;1310;68112;-66
2021/12/29 10:34:14;;;;;;;66.20;24.80;;;;;;;-2.97;94.25;98919.14;102131;1313;71597;-66
2021/12/29 10:37:06;;;;;;;66.10;26.00;;;;;;;-2.96;94.19;98915.23;102702;1311;59787;-66
2021/12/29 10:39:56;;;;;;;60.60;22.50;;;;;;;-2.97;94.03;98918.76;102580;1310;61051;-67
2021/12/29 10:42:55;;;;;;;68.80;24.20;;;;;;;-2.98;94.23;98921.55;102443;1314;73282;-66
2021/12/29 10:45:49;;;;;;;62.80;23.10;;;;;;;-2.99;94.11;98923.18;101657;1314;1003154;-66
2021/12/29 10:48:50;;;;;;;65.20;23.60;;;;;;;-3.03;94.42;98922.45;102993;1311;71827;-66
2021/12/29 10:51:43;;;;;;;67.60;27.10;;;;;;;-3.02;94.31;98920.90;102629;1310;59809;-66
2021/12/29 10:54:30;;;;;;;41.80;16.00;;;;;;;-2.98;94.40;98917.58;102004;1313;1003679;-67
2021/12/29 10:57:18;;;;;;;60.90;22.30;;;;;;;-2.96;94.27;98918.39;102337;1310;73430;-66
2021/12/29 11:00:16;;;;;;;63.90;23.50;;;;;;;-2.97;94.20;98917.17;102168;1310;68352;-66
2021/12/29 11:03:14;;;;;;;61.50;23.30;;;;;;;-2.94;94.49;98916.88;102151;1311;72962;-66
2021/12/29 11:06:04;;;;;;;62.60;24.10;;;;;;;-2.87;94.42;98913.13;102411;1312;60242;-66
2021/12/29 11:09:02;;;;;;;77.20;27.60;;;;;;;-2.79;94.04;98918.37;102865;1313;60585;-66
2021/12/29 11:11:49;;;;;;;66.50;25.10;;;;;;;-2.75;93.78;98918.20;102577;1310;73556;-66
2021/12/29 11:14:42;;;;;;;71.60;28.40;;;;;;;-2.72;93.78;98917.08;102457;1313;67318;-66
2021/12/29 11:17:29;;;;;;;62.90;23.00;;;;;;;-2.70;93.91;98922.52;102982;1310;73023;-66
2021/12/29 11:20:20;;;;;;;70.30;26.90;;;;;;;-2.69;93.42;98926.83;102110;1310;1003144;-66
2021/12/29 11:23:15;;;;;;;67.80;25.40;;;;;;;-2.70;93.47;98924.63;102510;1311;59682;-66
2021/12/29 11:26:03;;;;;;;46.80;18.10;;;;;;;-2.72;93.66;98923.13;102786;1310;72111;-66
2021/12/29 11:28:53;;;;;;;68.10;25.60;;;;;;;-2.74;93.88;98925.63;102934;1311;66733;-66
2021/12/29 11:31:50;;;;;;;65.60;25.40;;;;;;;-2.75;93.84;98924.10;102529;1314;73273;-65
2021/12/29 11:34:37;;;;;;;76.30;28.70;;;;;;;-2.77;94.42;98918.98;102465;1310;60703;-66
2021/12/29 11:37:25;;;;;;;79.90;28.70;;;;;;;-2.76;94.28;98921.52;102685;1310;60691;-66
2021/12/29 11:40:20;;;;;;;68.80;23.40;;;;;;;-2.72;94.10;98924.02;102412;1311;73590;-66
2021/12/29 11:43:09;;;;;;;56.50;20.10;;;;;;;-2.71;94.13;98918.94;102522;1317;67367;-66
2021/12/29 11:45:58;;;;;;;57.60;23.80;;;;;;;-2.70;94.20;98922.53;102157;1314;72129;-65
2021/12/29 11:48:46;;;;;;;68.10;26.20;;;;;;;-2.67;93.96;98920.14;102518;1310;59719;-68
2021/12/29 11:52:04;;;;;;;71.10;27.50;;;;;;;-2.65;94.06;98922.65;102169;1310;59715;-66
2021/12/29 11:55:09;;;;;;;71.10;26.50;;;;;;;-2.57;93.93;98924.08;102554;1313;73446;-66
2021/12/29 11:58:16;;;;;;;65.20;26.30;;;;;;;-2.51;93.67;98924.34;102723;1313;68616;-66
2021/12/29 12:01:23;;;;;;;67.40;26.40;;;;;;;-2.48;93.59;98930.14;102747;1310;71709;-66
2021/12/29 12:04:11;;;;;;;70.60;25.20;;;;;;;-2.48;93.44;98924.92;102703;1310;59863;-66
2021/12/29 12:07:05;;;;;;;61.40;24.60;;;;;;;-2.49;93.57;98923.90;102306;1310;59811;-66
2021/12/29 12:09:53;;;;;;;64.20;23.40;;;;;;;-2.52;93.26;98931.48;102713;1311;72158;-66
2021/12/29 12:12:47;;;;;;;75.20;28.00;;;;;;;-2.53;93.39;98928.06;102263;1310;68292;-66
2021/12/29 12:15:38;;;;;;;64.20;24.70;;;;;;;-2.51;93.77;98923.84;102479;1311;70354;-66
2021/12/29 12:18:53;;;;;;;63.00;25.60;;;;;;;-2.48;93.73;98917.94;102693;1311;59677;-66
2021/12/29 12:21:41;;;;;;;61.00;23.10;;;;;;;-2.44;93.64;98916.07;102428;1311;59663;-66
2021/12/29 12:24:29;;;;;;;52.10;20.00;;;;;;;-2.37;93.56;98911.77;102521;1310;73417;-66
2021/12/29 12:27:40;;;;;;;75.60;27.50;;;;;;;-2.32;93.10;98911.35;102351;1314;66988;-66
2021/12/29 12:30:49;;;;;;;68.90;26.50;;;;;;;-2.14;93.05;98911.30;102888;1310;73034;-66
2021/12/29 12:33:36;;;;;;;63.50;25.30;;;;;;;-2.04;92.21;98907.54;102974;1310;59802;-66
2021/12/29 12:36:32;;;;;;;62.80;24.90;;;;;;;-1.97;91.97;98905.66;102697;1311;60703;-66
2021/12/29 12:39:21;;;;;;;56.50;21.50;;;;;;;-1.90;91.90;98900.82;102369;1310;73615;-66
2021/12/29 12:42:17;;;;;;;58.30;24.20;;;;;;;-1.91;91.31;98903.33;102614;1311;67284;-66
2021/12/29 12:45:21;;;;;;;65.40;26.30;;;;;;;-1.99;90.84;98908.53;102566;1311;71976;-65
2021/12/29 12:48:23;;;;;;;65.50;26.60;;;;;;;-2.07;90.88;98908.35;102451;1311;60157;-66
2021/12/29 12:51:17;;;;;;;69.50;26.70;;;;;;;-2.12;90.93;98910.48;102441;1313;59577;-66
2021/12/29 12:54:21;;;;;;;53.10;22.60;;;;;;;-2.11;90.86;98916.17;102478;1309;72569;-67
2021/12/29 12:57:10;;;;;;;57.50;24.00;;;;;;;-2.12;91.24;98919.36;102345;1310;68425;-66